createdAt,value
2019-02-10T00:00:44.498Z,0.00
2019-02-10T00:01:27.911Z,0.00
2019-02-10T00:03:47.744Z,0.00
2019-02-10T00:04:47.141Z,0.00
2019-02-10T00:05:47.430Z,0.00
2019-02-10T00:06:47.120Z,0.00
2019-02-10T00:07:47.084Z,0.00
2019-02-10T00:10:42.535Z,0.00
2019-02-10T00:11:30.891Z,0.00
2019-02-10T00:12:30.900Z,0.00
2019-02-10T00:13:30.934Z,0.00
2019-02-10T00:14:30.789Z,0.00
2019-02-10T00:18:18.897Z,0.00
2019-02-10T00:19:18.244Z,0.00
2019-02-10T00:20:18.268Z,0.00
2019-02-10T00:21:18.192Z,0.00
2019-02-10T00:22:18.132Z,0.00
2019-02-10T00:23:18.159Z,0.00
2019-02-10T00:24:18.080Z,0.00
2019-02-10T00:27:11.620Z,0.00
2019-02-10T00:28:11.109Z,0.00
2019-02-10T00:29:11.263Z,0.00
2019-02-10T00:30:11.059Z,0.00
2019-02-10T00:31:10.959Z,0.00
2019-02-10T00:32:11.048Z,0.00
2019-02-10T00:33:10.951Z,0.00
2019-02-10T00:35:54.896Z,0.00
2019-02-10T00:37:04.994Z,0.00
2019-02-10T00:37:54.524Z,0.00
2019-02-10T00:38:55.413Z,0.00
2019-02-10T00:39:54.263Z,0.00
2019-02-10T00:40:54.293Z,0.00
2019-02-10T00:41:54.272Z,0.00
2019-02-10T00:42:54.287Z,0.00
2019-02-10T00:43:54.210Z,0.00
2019-02-10T00:44:54.499Z,0.00
2019-02-10T00:45:54.157Z,0.00
2019-02-10T00:46:54.163Z,0.00
2019-02-10T00:47:54.171Z,0.00
2019-02-10T00:48:54.169Z,0.00
2019-02-10T00:49:54.142Z,0.00
2019-02-10T00:50:54.108Z,0.00
2019-02-10T00:51:54.129Z,0.00
2019-02-10T00:52:54.088Z,0.00
2019-02-10T00:53:54.078Z,0.00
2019-02-10T00:54:54.155Z,0.00
2019-02-10T00:55:54.046Z,0.00
2019-02-10T00:56:54.724Z,0.00
2019-02-10T00:57:54.055Z,0.00
2019-02-10T00:58:54.012Z,0.00
2019-02-10T00:59:54.047Z,0.00
2019-02-10T01:00:54.032Z,0.00
2019-02-10T01:02:04.074Z,0.00
2019-02-10T01:02:54.357Z,0.00
2019-02-10T01:04:04.257Z,0.00
2019-02-10T01:04:54.301Z,0.00
2019-02-10T01:05:54.114Z,0.00
2019-02-10T01:06:54.150Z,0.00
2019-02-10T01:07:54.025Z,0.00
2019-02-10T01:09:02.228Z,0.00
2019-02-10T01:10:04.915Z,0.00
2019-02-10T01:10:53.997Z,0.00
2019-02-10T01:11:53.968Z,0.00
2019-02-10T01:12:53.920Z,0.00
2019-02-10T01:13:54.104Z,0.00
2019-02-10T01:16:42.593Z,0.00
2019-02-10T01:19:01.050Z,0.00
2019-02-10T01:20:00.760Z,0.00
2019-02-10T01:22:21.985Z,0.00
2019-02-10T01:23:21.360Z,0.00
2019-02-10T01:24:21.327Z,0.00
2019-02-10T01:25:21.392Z,0.00
2019-02-10T01:26:21.322Z,0.00
2019-02-10T01:27:21.414Z,0.00
2019-02-10T01:29:50.944Z,0.00
2019-02-10T01:30:50.450Z,0.00
2019-02-10T01:31:50.293Z,0.00
2019-02-10T01:35:52.557Z,0.00
2019-02-10T01:36:53.843Z,0.00
2019-02-10T01:40:07.033Z,0.00
2019-02-10T01:41:06.843Z,0.00
2019-02-10T01:42:07.017Z,0.00
2019-02-10T01:44:37.233Z,0.00
2019-02-10T01:45:36.020Z,0.00
2019-02-10T01:48:09.100Z,0.00
2019-02-10T01:50:42.308Z,0.00
2019-02-10T01:51:41.632Z,0.00
2019-02-10T01:52:41.670Z,0.00
2019-02-10T01:53:42.593Z,0.00
2019-02-10T01:54:41.530Z,0.00
2019-02-10T01:55:41.603Z,0.00
2019-02-10T01:56:42.394Z,0.00
2019-02-10T01:57:41.517Z,0.00
2019-02-10T01:58:44.515Z,0.00
2019-02-10T01:59:41.550Z,0.00
2019-02-10T02:00:41.460Z,0.00
2019-02-10T02:01:41.735Z,0.00
2019-02-10T02:02:41.433Z,0.00
2019-02-10T02:03:41.442Z,0.00
2019-02-10T02:04:41.404Z,0.00
2019-02-10T02:05:41.410Z,0.00
2019-02-10T02:06:41.522Z,0.00
2019-02-10T02:09:15.877Z,0.00
2019-02-10T02:10:14.739Z,0.00
2019-02-10T02:11:14.671Z,0.00
2019-02-10T02:12:14.532Z,0.00
2019-02-10T02:13:14.426Z,0.00
2019-02-10T02:14:14.491Z,0.00
2019-02-10T02:15:14.446Z,0.00
2019-02-10T02:16:14.441Z,0.00
2019-02-10T02:17:14.608Z,0.00
2019-02-10T02:18:14.397Z,0.00
2019-02-10T02:19:14.462Z,0.00
2019-02-10T02:20:14.358Z,0.00
2019-02-10T02:21:14.371Z,0.00
2019-02-10T02:22:14.339Z,0.00
2019-02-10T02:23:14.350Z,0.00
2019-02-10T02:24:14.324Z,0.00
2019-02-10T02:26:59.075Z,0.00
2019-02-10T02:27:58.453Z,0.00
2019-02-10T02:28:58.539Z,0.00
2019-02-10T02:29:58.339Z,0.00
2019-02-10T02:30:58.277Z,0.00
2019-02-10T02:31:58.235Z,0.00
2019-02-10T02:32:58.267Z,0.00
2019-02-10T02:33:58.273Z,0.00
2019-02-10T02:34:58.203Z,0.00
2019-02-10T02:35:58.321Z,0.00
2019-02-10T02:37:07.330Z,0.00
2019-02-10T02:37:59.467Z,0.00
2019-02-10T02:38:58.163Z,0.00
2019-02-10T02:39:58.145Z,0.00
2019-02-10T02:40:58.930Z,0.00
2019-02-10T02:42:23.543Z,0.00
2019-02-10T02:42:58.445Z,0.00
2019-02-10T02:44:00.215Z,0.00
2019-02-10T02:44:58.406Z,0.00
2019-02-10T02:45:58.108Z,0.00
2019-02-10T02:49:51.691Z,0.00
2019-02-10T02:50:46.146Z,0.00
2019-02-10T02:51:46.054Z,0.00
2019-02-10T02:52:46.019Z,0.00
2019-02-10T02:53:45.969Z,0.00
2019-02-10T02:54:46.005Z,0.00
2019-02-10T02:55:45.981Z,0.00
2019-02-10T02:56:46.006Z,0.00
2019-02-10T02:57:45.983Z,0.00
2019-02-10T02:58:45.945Z,0.00
2019-02-10T02:59:45.916Z,0.00
2019-02-10T03:00:45.974Z,0.00
2019-02-10T03:01:45.974Z,0.00
2019-02-10T03:02:45.943Z,0.00
2019-02-10T03:03:45.920Z,0.00
2019-02-10T03:04:45.844Z,0.00
2019-02-10T03:05:45.885Z,0.00
2019-02-10T03:06:45.908Z,0.00
2019-02-10T03:07:45.819Z,0.00
2019-02-10T03:08:45.803Z,0.00
2019-02-10T03:09:45.883Z,0.00
2019-02-10T03:10:45.784Z,0.00
2019-02-10T03:11:45.787Z,0.00
2019-02-10T03:12:45.814Z,0.00
2019-02-10T03:13:45.749Z,0.00
2019-02-10T03:14:45.747Z,0.00
2019-02-10T03:15:45.776Z,0.00
2019-02-10T03:16:45.735Z,0.00
2019-02-10T03:17:45.733Z,0.00
2019-02-10T03:18:53.056Z,0.00
2019-02-10T03:19:46.679Z,0.00
2019-02-10T03:20:45.814Z,0.00
2019-02-10T03:21:45.666Z,0.00
2019-02-10T03:22:45.694Z,0.00
2019-02-10T03:23:45.678Z,0.00
2019-02-10T03:24:45.637Z,0.00
2019-02-10T03:25:45.629Z,0.00
2019-02-10T03:26:45.646Z,0.00
2019-02-10T03:27:45.595Z,0.00
2019-02-10T03:28:45.640Z,0.00
2019-02-10T03:29:45.621Z,0.00
2019-02-10T03:30:45.619Z,0.00
2019-02-10T03:31:45.663Z,0.00
2019-02-10T03:32:45.567Z,0.00
2019-02-10T03:34:56.395Z,0.00
2019-02-10T03:35:56.146Z,0.00
2019-02-10T03:36:56.000Z,0.00
2019-02-10T03:37:55.912Z,0.00
2019-02-10T03:38:56.128Z,0.00
2019-02-10T03:39:55.942Z,0.00
2019-02-10T03:40:56.034Z,0.00
2019-02-10T03:42:07.962Z,0.00
2019-02-10T03:42:56.090Z,0.00
2019-02-10T03:43:55.907Z,0.00
2019-02-10T03:44:56.155Z,0.00
2019-02-10T03:45:55.851Z,0.00
2019-02-10T03:46:55.903Z,0.00
2019-02-10T03:47:55.746Z,0.00
2019-02-10T03:48:55.799Z,0.00
2019-02-10T03:49:55.771Z,0.00
2019-02-10T03:50:55.811Z,0.00
2019-02-10T03:51:55.706Z,0.00
2019-02-10T03:52:55.704Z,0.00
2019-02-10T03:53:55.710Z,0.00
2019-02-10T03:54:55.691Z,0.00
2019-02-10T03:55:55.696Z,0.00
2019-02-10T03:56:55.661Z,0.00
2019-02-10T03:57:55.677Z,0.00
2019-02-10T04:00:07.401Z,0.00
2019-02-10T04:01:07.009Z,0.00
2019-02-10T04:02:06.736Z,0.00
2019-02-10T04:03:06.765Z,0.00
2019-02-10T04:04:06.672Z,0.00
2019-02-10T04:05:06.796Z,0.00
2019-02-10T04:06:06.613Z,0.00
2019-02-10T04:07:06.567Z,0.00
2019-02-10T04:08:06.596Z,0.00
2019-02-10T04:10:37.052Z,0.00
2019-02-10T04:11:36.810Z,0.00
2019-02-10T04:12:37.371Z,0.00
2019-02-10T04:13:36.575Z,0.00
2019-02-10T04:14:36.549Z,0.00
2019-02-10T04:15:36.549Z,0.00
2019-02-10T04:16:36.429Z,0.00
2019-02-10T04:17:36.445Z,0.00
2019-02-10T04:18:36.393Z,0.00
2019-02-10T04:19:36.446Z,0.00
2019-02-10T04:20:36.381Z,0.00
2019-02-10T04:21:36.390Z,0.00
2019-02-10T04:22:36.338Z,0.00
2019-02-10T04:23:36.356Z,0.00
2019-02-10T04:24:36.367Z,0.00
2019-02-10T04:25:36.315Z,0.00
2019-02-10T04:26:36.303Z,0.00
2019-02-10T04:27:36.300Z,0.00
2019-02-10T04:28:36.347Z,0.00
2019-02-10T04:29:36.267Z,0.00
2019-02-10T04:30:36.271Z,0.00
2019-02-10T04:31:36.281Z,0.00
2019-02-10T04:32:36.258Z,0.00
2019-02-10T04:33:36.314Z,0.00
2019-02-10T04:34:36.285Z,0.00
2019-02-10T04:35:36.207Z,0.00
2019-02-10T04:36:36.200Z,0.00
2019-02-10T04:37:45.060Z,0.00
2019-02-10T04:38:37.243Z,0.00
2019-02-10T04:39:36.164Z,0.00
2019-02-10T04:40:36.163Z,0.00
2019-02-10T04:41:36.136Z,0.00
2019-02-10T04:42:36.144Z,0.00
2019-02-10T04:43:36.132Z,0.00
2019-02-10T04:44:36.210Z,0.00
2019-02-10T04:45:36.086Z,0.00
2019-02-10T04:46:36.077Z,0.00
2019-02-10T04:47:36.081Z,0.00
2019-02-10T04:48:39.515Z,0.00
2019-02-10T04:49:36.055Z,0.00
2019-02-10T04:50:37.111Z,0.00
2019-02-10T04:51:36.290Z,0.00
2019-02-10T04:52:43.035Z,0.00
2019-02-10T04:53:36.309Z,0.00
2019-02-10T04:54:36.136Z,0.00
2019-02-10T04:55:35.986Z,0.00
2019-02-10T04:56:35.997Z,0.00
2019-02-10T04:57:35.949Z,0.00
2019-02-10T04:58:35.955Z,0.00
2019-02-10T04:59:35.954Z,0.00
2019-02-10T05:00:35.961Z,0.00
2019-02-10T05:01:36.051Z,0.00
2019-02-10T05:02:35.939Z,0.00
2019-02-10T05:03:35.908Z,0.00
2019-02-10T05:04:35.903Z,0.00
2019-02-10T05:05:35.914Z,0.00
2019-02-10T05:06:35.944Z,0.00
2019-02-10T05:07:35.847Z,0.00
2019-02-10T05:08:35.847Z,0.00
2019-02-10T05:09:35.873Z,0.00
2019-02-10T05:10:35.834Z,0.00
2019-02-10T05:11:35.807Z,0.00
2019-02-10T05:12:35.797Z,0.00
2019-02-10T05:13:36.484Z,0.00
2019-02-10T05:14:35.809Z,0.00
2019-02-10T05:15:35.830Z,0.00
2019-02-10T05:16:35.799Z,0.00
2019-02-10T05:51:25.097Z,0.00
2019-02-10T05:52:24.117Z,0.00
2019-02-10T05:55:13.210Z,0.00
2019-02-10T05:56:12.973Z,0.00
2019-02-10T06:00:18.244Z,0.00
2019-02-10T06:01:20.636Z,0.00
2019-02-10T06:06:19.933Z,0.00
2019-02-10T06:07:19.162Z,0.00
2019-02-10T06:08:19.019Z,0.00
2019-02-10T06:09:18.979Z,0.00
2019-02-10T06:10:18.845Z,0.00
2019-02-10T06:11:18.736Z,0.00
2019-02-10T06:12:19.147Z,0.00
2019-02-10T06:13:18.641Z,0.00
2019-02-10T06:14:18.657Z,0.00
2019-02-10T06:15:18.618Z,0.00
2019-02-10T06:16:18.673Z,0.00
2019-02-10T06:18:42.845Z,0.00
2019-02-10T06:19:41.492Z,0.00
2019-02-10T06:20:42.186Z,0.00
2019-02-10T06:21:41.478Z,0.00
2019-02-10T06:22:41.387Z,0.00
2019-02-10T06:23:46.141Z,0.00
2019-02-10T06:24:41.319Z,0.00
2019-02-10T06:25:41.321Z,0.00
2019-02-10T06:26:41.327Z,0.00
2019-02-10T06:27:41.284Z,4.00
2019-02-10T06:28:41.327Z,4.00
2019-02-10T06:29:41.327Z,4.00
2019-02-10T06:30:41.358Z,4.00
2019-02-10T06:31:41.230Z,4.00
2019-02-10T06:32:41.242Z,4.00
2019-02-10T06:35:27.211Z,8.00
2019-02-10T06:45:36.956Z,28.00
2019-02-10T06:46:36.517Z,36.00
2019-02-10T06:47:36.425Z,40.00
2019-02-10T06:48:36.481Z,44.00
2019-02-10T06:51:16.741Z,48.00
2019-02-10T06:52:17.156Z,52.00
2019-02-10T06:54:46.203Z,68.00
2019-02-10T06:55:45.457Z,88.00
2019-02-10T07:04:19.473Z,216.00
2019-02-10T07:06:48.037Z,260.00
2019-02-10T07:07:46.493Z,276.00
2019-02-10T07:15:37.564Z,560.00
2019-02-10T07:16:37.527Z,608.00
2019-02-10T07:17:37.443Z,684.00
2019-02-10T07:18:37.570Z,752.00
2019-02-10T07:19:37.389Z,828.00
2019-02-10T07:20:37.336Z,904.00
2019-02-10T07:21:37.426Z,952.00
2019-02-10T07:22:37.346Z,936.00
2019-02-10T07:23:37.313Z,924.00
2019-02-10T07:24:37.357Z,900.00
2019-02-10T07:25:37.359Z,840.00
2019-02-10T07:26:37.349Z,740.00
2019-02-10T07:27:37.451Z,700.00
2019-02-10T07:28:37.250Z,680.00
2019-02-10T07:29:37.289Z,716.00
2019-02-10T07:30:37.255Z,772.00
2019-02-10T07:31:37.222Z,812.00
2019-02-10T07:32:37.219Z,828.00
2019-02-10T07:33:37.202Z,844.00
2019-02-10T07:34:37.222Z,876.00
2019-02-10T07:35:37.176Z,936.00
2019-02-10T07:36:37.295Z,972.00
2019-02-10T07:37:37.183Z,1008.00
2019-02-10T07:38:38.684Z,1084.00
2019-02-10T07:39:37.145Z,1132.00
2019-02-10T07:40:37.208Z,1148.00
2019-02-10T07:41:37.123Z,1212.00
2019-02-10T07:42:37.126Z,1208.00
2019-02-10T07:43:37.127Z,1232.00
2019-02-10T07:44:37.151Z,1236.00
2019-02-10T07:45:37.772Z,1316.00
2019-02-10T07:47:43.279Z,1452.00
2019-02-10T07:48:35.819Z,1492.00
2019-02-10T07:49:35.726Z,1580.00
2019-02-10T07:50:35.843Z,1616.00
2019-02-10T07:51:35.353Z,1712.00
2019-02-10T07:52:37.992Z,1752.00
2019-02-10T07:53:35.393Z,1764.00
2019-02-10T07:54:42.133Z,1696.00
2019-02-10T07:55:36.741Z,1580.00
2019-02-10T07:59:22.932Z,1300.00
2019-02-10T08:00:22.914Z,1268.00
2019-02-10T08:02:34.521Z,1336.00
2019-02-10T08:03:35.142Z,1296.00
2019-02-10T08:04:39.686Z,1376.00
2019-02-10T08:05:33.971Z,1512.00
2019-02-10T08:06:33.970Z,1664.00
2019-02-10T08:07:34.764Z,1780.00
2019-02-10T08:08:46.264Z,1920.00
2019-02-10T08:09:35.000Z,1928.00
2019-02-10T08:10:35.719Z,1916.00
2019-02-10T08:11:33.916Z,1920.00
2019-02-10T08:12:46.414Z,2004.00
2019-02-10T08:13:33.993Z,2060.00
2019-02-10T08:14:34.111Z,1876.00
2019-02-10T08:15:34.790Z,1848.00
2019-02-10T08:32:26.089Z,1572.00
2019-02-10T08:33:26.456Z,1620.00
2019-02-10T08:34:27.938Z,1860.00
2019-02-10T08:35:25.548Z,1888.00
2019-02-10T08:42:33.718Z,2040.00
2019-02-10T08:46:22.930Z,1740.00
2019-02-10T08:47:22.879Z,2236.00
2019-02-10T08:48:22.427Z,2272.00
2019-02-10T08:49:22.138Z,2572.00
2019-02-10T08:50:22.094Z,3076.00
2019-02-10T08:52:51.995Z,5160.00
2019-02-10T08:53:50.954Z,5300.00
2019-02-10T09:01:20.467Z,4432.00
2019-02-10T09:02:21.370Z,5428.00
2019-02-10T09:03:20.038Z,6216.00
2019-02-10T09:04:19.024Z,5740.00
2019-02-10T09:10:09.766Z,3688.00
2019-02-10T09:20:07.403Z,6308.00
2019-02-10T09:21:07.657Z,5720.00
2019-02-10T09:22:07.118Z,4076.00
2019-02-10T09:23:07.111Z,3564.00
2019-02-10T09:24:07.677Z,3304.00
2019-02-10T09:25:06.833Z,2980.00
2019-02-10T09:27:22.870Z,3732.00
2019-02-10T09:28:20.941Z,2748.00
2019-02-10T09:29:20.897Z,2904.00
2019-02-10T09:30:21.816Z,4056.00
2019-02-10T09:31:23.219Z,4512.00
2019-02-10T09:34:29.723Z,4020.00
2019-02-10T09:35:22.895Z,4708.00
2019-02-10T09:36:23.049Z,5480.00
2019-02-10T09:38:55.944Z,5248.00
2019-02-10T09:39:56.133Z,6116.00
2019-02-10T09:40:57.469Z,4972.00
2019-02-10T09:41:55.892Z,4092.00
2019-02-10T09:52:05.872Z,11192.00
2019-02-10T09:53:05.492Z,9984.00
2019-02-10T10:04:45.651Z,11960.00
2019-02-10T10:05:45.434Z,10824.00
2019-02-10T10:08:05.626Z,8976.00
2019-02-10T10:09:09.884Z,9356.00
2019-02-10T10:10:06.185Z,9220.00
2019-02-10T10:11:05.645Z,8892.00
2019-02-10T10:12:05.011Z,8576.00
2019-02-10T10:13:05.063Z,8312.00
2019-02-10T10:17:01.649Z,7364.00
2019-02-10T10:18:01.674Z,7200.00
2019-02-10T10:19:12.532Z,6904.00
2019-02-10T10:22:09.384Z,6016.00
2019-02-10T10:23:14.701Z,5924.00
2019-02-10T10:24:09.094Z,5660.00
2019-02-10T10:25:12.834Z,5496.00
2019-02-10T10:27:38.370Z,5332.00
2019-02-10T11:32:15.662Z,14944.00
2019-02-10T11:36:45.930Z,12824.00
2019-02-10T11:37:45.502Z,14148.00
2019-02-10T12:16:12.124Z,16416.00
2019-02-10T12:17:11.883Z,16320.00
2019-02-10T12:18:12.536Z,15396.00
2019-02-10T12:19:11.634Z,13804.00
2019-02-10T12:20:15.275Z,13660.00
2019-02-10T12:21:11.914Z,14144.00
2019-02-10T12:22:11.629Z,16044.00
2019-02-10T12:24:26.322Z,14348.00
2019-02-10T12:25:25.259Z,12840.00
2019-02-10T12:26:25.227Z,10216.00
2019-02-10T12:27:25.013Z,8564.00
2019-02-10T12:28:24.976Z,7948.00
2019-02-10T12:29:25.024Z,6320.00
2019-02-10T12:30:25.020Z,5676.00
2019-02-10T12:34:48.452Z,10428.00
2019-02-10T12:35:49.104Z,10896.00
2019-02-10T12:38:00.456Z,13372.00
2019-02-10T12:39:02.409Z,15496.00
2019-02-10T12:40:00.014Z,17312.00
2019-02-10T12:41:10.760Z,17632.00
2019-02-10T12:41:59.253Z,16960.00
2019-02-10T12:42:59.329Z,16240.00
2019-02-10T12:45:25.455Z,15932.00
2019-02-10T12:46:24.428Z,14372.00
2019-02-10T12:47:25.226Z,12648.00
2019-02-10T12:48:24.098Z,11624.00
2019-02-10T12:49:24.058Z,11196.00
2019-02-10T12:50:25.017Z,10116.00
2019-02-10T12:51:24.057Z,9276.00
2019-02-10T12:52:24.392Z,8120.00
2019-02-10T12:53:31.761Z,6836.00
2019-02-10T12:54:24.014Z,6300.00
2019-02-10T12:55:24.052Z,6216.00
2019-02-10T12:56:25.117Z,6440.00
2019-02-10T12:57:24.027Z,6536.00
2019-02-10T12:58:24.066Z,7020.00
2019-02-10T12:59:24.959Z,9120.00
2019-02-10T13:00:25.084Z,9916.00
2019-02-10T13:01:26.127Z,9084.00
2019-02-10T13:02:24.915Z,8720.00
2019-02-10T13:03:27.369Z,8524.00
2019-02-10T13:05:50.523Z,10048.00
2019-02-10T13:06:50.997Z,10648.00
2019-02-10T13:07:50.068Z,8200.00
2019-02-10T13:08:50.132Z,7048.00
2019-02-10T13:12:08.441Z,4516.00
2019-02-10T13:13:08.233Z,4188.00
2019-02-10T13:14:07.400Z,3688.00
2019-02-10T13:15:07.329Z,3576.00
2019-02-10T13:17:34.875Z,4636.00
2019-02-10T13:18:34.538Z,4188.00
2019-02-10T13:19:34.599Z,4012.00
2019-02-10T13:20:36.408Z,4544.00
2019-02-10T13:21:35.766Z,6020.00
2019-02-10T13:22:34.385Z,7408.00
2019-02-10T13:23:34.318Z,7592.00
2019-02-10T13:24:34.329Z,7512.00
2019-02-10T13:25:34.293Z,7460.00
2019-02-10T13:26:37.352Z,7620.00
2019-02-10T13:27:34.336Z,7552.00
2019-02-10T13:28:34.270Z,7404.00
2019-02-10T13:29:34.243Z,6996.00
2019-02-10T13:30:34.236Z,6492.00
2019-02-10T13:31:34.906Z,6648.00
2019-02-10T13:32:34.250Z,6064.00
2019-02-10T13:33:34.244Z,5696.00
2019-02-10T13:34:34.191Z,5396.00
2019-02-10T13:35:34.264Z,5216.00
2019-02-10T13:36:34.209Z,5224.00
2019-02-10T13:37:34.528Z,5244.00
2019-02-10T13:39:59.372Z,5168.00
2019-02-10T13:40:59.369Z,5072.00
2019-02-10T13:41:59.916Z,4984.00
2019-02-10T13:42:58.820Z,4984.00
2019-02-10T13:43:58.833Z,4816.00
2019-02-10T13:44:58.763Z,4340.00
2019-02-10T13:45:58.742Z,4516.00
2019-02-10T13:46:58.709Z,5448.00
2019-02-10T13:47:58.690Z,7136.00
2019-02-10T13:48:58.696Z,8212.00
2019-02-10T13:49:58.675Z,10084.00
2019-02-10T13:50:58.767Z,11600.00
2019-02-10T13:51:58.707Z,12920.00
2019-02-10T13:52:58.642Z,13576.00
2019-02-10T13:53:58.661Z,13020.00
2019-02-10T13:54:58.638Z,12788.00
2019-02-10T13:55:58.615Z,12288.00
2019-02-10T13:56:58.632Z,13080.00
2019-02-10T13:57:58.585Z,18816.00
2019-02-10T13:58:58.592Z,17120.00
2019-02-10T13:59:58.642Z,17792.00
2019-02-10T14:00:58.549Z,16960.00
2019-02-10T14:01:58.552Z,16704.00
2019-02-10T14:02:58.593Z,19584.00
2019-02-10T14:03:58.624Z,16112.00
2019-02-10T14:04:58.581Z,15132.00
2019-02-10T14:05:58.531Z,14184.00
2019-02-10T14:06:58.744Z,13568.00
2019-02-10T14:07:58.696Z,12452.00
2019-02-10T14:13:23.090Z,8692.00
2019-02-10T14:15:34.294Z,10396.00
2019-02-10T14:44:43.308Z,3020.00
2019-02-10T14:47:36.132Z,3128.00
2019-02-10T14:53:43.852Z,3276.00
2019-02-10T14:54:42.696Z,3332.00
2019-02-10T14:55:42.731Z,3392.00
2019-02-10T14:56:42.748Z,2944.00
2019-02-10T14:57:42.632Z,2308.00
2019-02-10T15:01:43.195Z,2196.00
2019-02-10T15:02:42.988Z,1824.00
2019-02-10T15:03:42.911Z,1448.00
2019-02-10T15:04:43.354Z,1388.00
2019-02-10T15:10:22.604Z,1604.00
2019-02-10T15:11:22.003Z,1580.00
2019-02-10T15:12:22.832Z,1720.00
2019-02-10T15:13:21.711Z,1804.00
2019-02-10T15:14:21.702Z,1816.00
2019-02-10T15:15:28.824Z,2076.00
2019-02-10T15:16:22.236Z,2428.00
2019-02-10T15:17:21.628Z,2444.00
2019-02-10T15:19:38.806Z,2632.00
2019-02-10T15:20:38.541Z,1860.00
2019-02-10T15:21:38.548Z,1344.00
2019-02-10T15:22:38.352Z,1268.00
2019-02-10T15:23:38.296Z,1020.00
2019-02-10T15:24:39.005Z,1216.00
2019-02-10T15:25:38.206Z,1728.00
2019-02-10T15:26:38.486Z,2012.00
2019-02-10T15:27:38.186Z,2372.00
2019-02-10T15:28:38.197Z,2468.00
2019-02-10T15:29:38.611Z,2188.00
2019-02-10T15:30:39.165Z,2060.00
2019-02-10T15:31:39.037Z,1796.00
2019-02-10T15:32:38.125Z,1668.00
2019-02-10T15:33:38.149Z,1536.00
2019-02-10T15:34:38.158Z,1600.00
2019-02-10T15:35:38.163Z,1764.00
2019-02-10T15:36:38.340Z,1772.00
2019-02-10T15:37:38.061Z,1292.00
2019-02-10T15:39:57.504Z,1288.00
2019-02-10T15:41:59.026Z,1540.00
2019-02-10T15:42:58.497Z,1676.00
2019-02-10T15:45:17.654Z,1264.00
2019-02-10T15:46:17.235Z,1056.00
2019-02-10T15:47:17.230Z,768.00
2019-02-10T15:49:37.240Z,596.00
2019-02-10T15:50:36.701Z,600.00
2019-02-10T15:51:46.488Z,628.00
2019-02-10T15:52:37.024Z,552.00
2019-02-10T15:53:36.607Z,476.00
2019-02-10T15:54:36.650Z,372.00
2019-02-10T15:55:36.683Z,288.00
2019-02-10T15:56:36.439Z,244.00
2019-02-10T15:57:36.433Z,224.00
2019-02-10T15:58:36.476Z,204.00
2019-02-10T15:59:36.396Z,188.00
2019-02-10T16:00:36.371Z,224.00
2019-02-10T16:01:36.366Z,292.00
2019-02-10T16:02:36.679Z,372.00
2019-02-10T16:03:36.556Z,328.00
2019-02-10T16:04:36.339Z,368.00
2019-02-10T16:05:36.964Z,444.00
2019-02-10T16:06:36.403Z,588.00
2019-02-10T16:07:36.305Z,692.00
2019-02-10T16:08:36.287Z,668.00
2019-02-10T16:09:37.321Z,560.00
2019-02-10T16:10:36.908Z,444.00
2019-02-10T16:11:36.255Z,356.00
2019-02-10T16:12:36.297Z,260.00
2019-02-10T16:13:36.269Z,220.00
2019-02-10T16:14:36.265Z,236.00
2019-02-10T16:15:37.168Z,284.00
2019-02-10T16:16:36.280Z,344.00
2019-02-10T16:17:36.227Z,328.00
2019-02-10T16:18:36.243Z,332.00
2019-02-10T16:19:36.222Z,316.00
2019-02-10T16:20:36.218Z,300.00
2019-02-10T16:21:36.711Z,272.00
2019-02-10T17:33:15.946Z,0.00
2019-02-10T17:34:17.687Z,0.00
2019-02-10T17:35:17.171Z,0.00
2019-02-10T17:36:18.853Z,0.00
2019-02-10T17:37:15.809Z,0.00
2019-02-10T17:44:05.716Z,0.00
2019-02-10T17:45:00.645Z,0.00
2019-02-10T17:53:52.324Z,0.00
2019-02-10T17:54:52.301Z,0.00
2019-02-10T17:55:52.226Z,0.00
2019-02-10T17:56:52.145Z,0.00
2019-02-10T17:57:52.128Z,0.00
2019-02-10T17:58:52.095Z,0.00
2019-02-10T17:59:53.083Z,0.00
2019-02-10T18:00:52.083Z,0.00
2019-02-10T18:01:52.059Z,0.00
2019-02-10T18:02:52.059Z,0.00
2019-02-10T18:03:54.692Z,0.00
2019-02-10T18:04:52.032Z,0.00
2019-02-10T18:05:52.041Z,0.00
2019-02-10T18:06:52.016Z,0.00
2019-02-10T18:07:52.025Z,0.00
2019-02-10T18:08:52.029Z,0.00
2019-02-10T18:09:51.995Z,0.00
2019-02-10T18:10:53.031Z,0.00
2019-02-10T18:11:52.094Z,0.00
2019-02-10T18:12:51.954Z,0.00
2019-02-10T18:13:51.989Z,0.00
2019-02-10T18:14:51.995Z,0.00
2019-02-10T18:15:51.937Z,0.00
2019-02-10T18:16:51.910Z,0.00
2019-02-10T18:17:51.981Z,0.00
2019-02-10T18:18:51.961Z,0.00
2019-02-10T18:19:51.974Z,0.00
2019-02-10T18:20:52.005Z,0.00
2019-02-10T18:21:51.914Z,0.00
2019-02-10T18:22:54.507Z,0.00
2019-02-10T18:23:51.828Z,0.00
2019-02-10T18:24:52.432Z,0.00
2019-02-10T18:25:51.897Z,0.00
2019-02-10T18:26:51.856Z,0.00
2019-02-10T18:27:51.866Z,0.00
2019-02-10T18:28:51.936Z,0.00
2019-02-10T18:29:51.830Z,0.00
2019-02-10T18:30:51.801Z,0.00
2019-02-10T18:31:51.726Z,0.00
2019-02-10T18:32:51.717Z,0.00
2019-02-10T18:33:51.706Z,0.00
2019-02-10T18:34:51.830Z,0.00
2019-02-10T18:35:52.609Z,0.00
2019-02-10T18:36:51.690Z,0.00
2019-02-10T18:37:51.687Z,0.00
2019-02-10T18:38:51.660Z,0.00
2019-02-10T18:39:51.652Z,0.00
2019-02-10T18:40:51.648Z,0.00
2019-02-10T18:41:51.651Z,0.00
2019-02-10T18:42:51.733Z,0.00
2019-02-10T18:43:51.656Z,0.00
2019-02-10T18:44:51.592Z,0.00
2019-02-10T18:45:51.586Z,0.00
2019-02-10T18:46:51.694Z,0.00
2019-02-10T18:47:51.599Z,0.00
2019-02-10T18:48:51.598Z,0.00
2019-02-10T18:49:52.015Z,0.00
2019-02-10T18:50:51.551Z,0.00
2019-02-10T18:51:51.545Z,0.00
2019-02-10T18:52:51.551Z,0.00
2019-02-10T18:53:51.571Z,0.00
2019-02-10T18:54:52.469Z,0.00
2019-02-10T18:55:51.560Z,0.00
2019-02-10T18:56:51.459Z,0.00
2019-02-10T18:57:51.554Z,0.00
2019-02-10T18:58:54.327Z,0.00
2019-02-10T18:59:51.433Z,0.00
2019-02-10T19:00:51.428Z,0.00
2019-02-10T19:01:51.400Z,0.00
2019-02-10T19:02:51.394Z,0.00
2019-02-10T19:03:51.435Z,0.00
2019-02-10T19:04:51.404Z,0.00
2019-02-10T19:05:51.403Z,0.00
2019-02-10T19:06:51.351Z,0.00
2019-02-10T19:07:51.340Z,0.00
2019-02-10T19:08:51.378Z,0.00
2019-02-10T19:09:51.335Z,0.00
2019-02-10T19:10:51.384Z,0.00
2019-02-10T19:11:51.304Z,0.00
2019-02-10T19:12:51.323Z,0.00
2019-02-10T19:13:51.273Z,0.00
2019-02-10T19:14:51.271Z,0.00
2019-02-10T19:15:51.290Z,0.00
2019-02-10T19:16:51.238Z,0.00
2019-02-10T19:17:51.266Z,0.00
2019-02-10T19:18:51.238Z,0.00
2019-02-10T19:19:51.797Z,0.00
2019-02-10T19:20:51.265Z,0.00
2019-02-10T19:21:51.195Z,0.00
2019-02-10T19:22:51.189Z,0.00
2019-02-10T19:23:52.364Z,0.00
2019-02-10T19:24:51.166Z,0.00
2019-02-10T19:25:54.970Z,0.00
2019-02-10T19:37:50.554Z,0.00
2019-02-10T19:39:05.353Z,0.00
2019-02-10T19:39:49.890Z,0.00
2019-02-10T19:40:49.901Z,0.00
2019-02-10T19:41:55.532Z,0.00
2019-02-10T19:42:50.729Z,0.00
2019-02-10T19:43:49.826Z,0.00
2019-02-10T19:44:49.849Z,0.00
2019-02-10T19:45:51.866Z,0.00
2019-02-10T19:46:50.432Z,0.00
2019-02-10T19:47:49.772Z,0.00
2019-02-10T19:48:50.689Z,0.00
2019-02-10T19:49:49.682Z,0.00
2019-02-10T19:50:49.669Z,0.00
2019-02-10T19:51:49.642Z,0.00
2019-02-10T19:55:36.435Z,0.00
2019-02-10T19:58:07.065Z,0.00
2019-02-10T20:00:09.153Z,0.00
2019-02-10T20:01:09.052Z,0.00
2019-02-10T20:02:08.668Z,0.00
2019-02-10T20:03:08.859Z,0.00
2019-02-10T20:04:08.699Z,0.00
2019-02-10T20:36:59.523Z,0.00
2019-02-10T20:37:57.272Z,0.00
2019-02-10T20:38:57.185Z,0.00
2019-02-10T20:39:58.098Z,0.00
2019-02-10T20:40:57.163Z,0.00
2019-02-10T20:41:57.151Z,0.00
2019-02-10T20:42:57.244Z,0.00
2019-02-10T20:43:57.127Z,0.00
2019-02-10T20:44:57.120Z,0.00
2019-02-10T20:45:57.098Z,0.00
2019-02-10T20:46:57.181Z,0.00
2019-02-10T20:47:57.086Z,0.00
2019-02-10T20:48:57.155Z,0.00
2019-02-10T20:49:57.061Z,0.00
2019-02-10T20:50:57.073Z,0.00
2019-02-10T20:51:57.041Z,0.00
2019-02-10T20:52:57.079Z,0.00
2019-02-10T20:53:57.041Z,0.00
2019-02-10T20:54:57.077Z,0.00
2019-02-10T20:55:56.998Z,0.00
2019-02-10T20:56:57.012Z,0.00
2019-02-10T20:57:57.061Z,0.00
2019-02-10T20:58:56.988Z,0.00
2019-02-10T20:59:57.417Z,0.00
2019-02-10T21:00:56.982Z,0.00
2019-02-10T21:01:57.011Z,0.00
2019-02-10T21:02:56.987Z,0.00
2019-02-10T21:03:56.900Z,0.00
2019-02-10T21:04:57.068Z,0.00
2019-02-10T21:05:56.895Z,0.00
2019-02-10T21:06:56.893Z,0.00
2019-02-10T21:07:56.899Z,0.00